x

West Orca Bay - 8nm Nw Of Hinchinbrook Is , Ak (46060) Wave Buoy

10:50pm - Tue 26th Jul 2016 All times are AKDT. -8 hours from GMT.

  • Sig Wave height 1.3ft
  • Swell Direction
  • Peak Period 15s
  • Average Period 4s
  • Wind
    11mph, 13mph gusts
  • Sea Temp 57°f
  • Air Temp 55°f
  • Sea Pressure 1014.2mb
  • West Orca Bay - 8nm Nw Of Hinchinbrook  Is , Ak
  • West Orca Bay - 8nm Nw Of Hinchinbrook  Is , Ak

More Historic Weather Station data

Upgrade to MSW Pro to gain access to the past 30 days of data for over 8000 Wavebouys and Weather Stations around the globe.

Join Pro

Comparision Forecast

View Surf forecast
   
Tue 07/26 10:50pm 1.3ft 15s 4s 11 13 mph 1014.2mb 57f 55f
9:50pm 2ft 4s 4s 11 13 mph 1013.8mb 57f 56f
8:50pm 2ft 4s 4s 18 22 mph 1013.9mb 55f 57f
7:50pm 2.5ft 4s 4s 16 18 mph 1013.9mb 55f 56f
6:50pm 2ft 4s 4s 18 22 mph 1013.7mb 55f 56f
5:50pm 2ft 3s 4s 18 20 mph 1013.3mb 56f 56f
4:50pm 1.6ft 6s 4s 11 18 mph 1013.4mb 56f 57f
3:50pm 1.6ft 15s 4s 13 18 mph 1013.6mb 56f 55f
2:50pm 1.3ft 15s 4s 7 9 mph 1013.6mb 57f 58f
1:50pm 1ft 14s 6s 4
mph
1013.2mb 57f 57f
12:50pm 1ft 15s 5s 2
mph
1013.3mb 57f 56f
11:50am 1ft 15s 4s  -  mph 1013.2mb 57f 57f
10:50am 1ft 6s 5s 2
mph
1012.9mb 57f 56f
9:50am 1ft 7s 5s  -  mph 1013.1mb 57f 56f
8:50am 1ft 6s 5s 7 9 mph 1012.8mb 57f 56f
7:50am 1ft 15s 5s 7
mph
1012.8mb 56f 56f
6:50am 1ft 15s 4s 2 4 mph 1013.2mb 56f 56f
5:50am 1.3ft 16s 4s 4 7 mph 1013.6mb 55f 57f
4:50am 1ft 16s 4s 4 7 mph 1013.9mb 56f 57f
3:50am 1.3ft 13s 4s 7 9 mph 1014.1mb 56f 56f
2:50am 1.6ft 6s 4s 7 9 mph 1014.6mb 56f 57f
1:50am 1.6ft 3s 3s 13 16 mph 1015mb 56f 56f
12:50am 2ft 3s 3s 16 18 mph 1015.1mb 56f 56f
Mon 07/25 11:50pm 2ft 3s 3s 18 20 mph 1015.1mb 56f 57f
10:50pm 2.5ft 3s 3s 18 22 mph 1014.9mb 56f 57f
9:50pm 2.5ft 4s 3s 18 20 mph 1014.6mb 56f 56f
8:50pm 2.5ft 4s 3s 22 27 mph 1014.1mb 56f 56f
7:50pm 2.5ft 4s 3s 22 25 mph 1013.9mb 56f 56f